Meteo Giornale » Osservazioni meteo Arabia Saudita » Hail
ore: 00:00 - Osservazioni Meteo Hail
Lat. 27° 26' N Lon. 41° 41' E Alt. 1015 metri s.l.m.
31 °C
Sereno
Temp. 24 Ore
26 °C
41 °C
Est
11.1 Km/h
Dew point -2 °C
Umidità 11 %
Visibilità 10 Km
Il sole sorge alle ore 05:52
Il sole tramonta alle ore 18:34
| Data e Ora | Cielo e Fenomeni | T °C | DP °C | Um. % | Pres. hPa | Vis. km | Vento km/h | |
|---|---|---|---|---|---|---|---|---|
| Oggi h: 00:00 | Sereno | 31 | -2 | 11 | 1013 | 10 | E 11.1 | |
| Ieri h: 23:00 | Sereno | 32 | -3 | 10 | 1013 | 10 | E 7.4 | |
| Ieri h: 22:00 | Sereno | 33 | -3 | 9 | 1013 | 10 | N 3.7 | |
| Ieri h: 21:00 | Sereno | 35 | -3 | 8 | 1013 | 10 | N 3.7 | |
| Ieri h: 20:00 | Sereno | 36 | -2 | 8 | 1012 | 10 | O/NO 14.8 | |
| Ieri h: 19:00 | Sereno | 37 | -3 | 7 | 1012 | 10 | O/NO 25.9 | |
| Ieri h: 18:00 | Sereno | 38 | -3 | 7 | 1011 | 10 | O/NO 33.3 | |
| Ieri h: 17:00 | Sereno | 39 | -5 | 6 | 1012 | 10 | O 29.6 | |
| Ieri h: 16:00 | Nuvoloso | 41 | -7 | 4 | 1012 | 10 | O 22.2 | |
| Ieri h: 15:00 | Sereno | 40 | -8 | 4 | 1012 | 10 | O/SO 22.2 | |
| Ieri h: 14:00 | Sereno | 41 | -8 | 4 | 1012 | 10 | O/SO 25.9 | |
| Ieri h: 13:00 | Sereno | 40 | -8 | 4 | 1013 | 10 | O/SO 14.8 | |
| Ieri h: 12:00 | Sereno | 37 | -7 | 5 | 1013 | 10 | O 22.2 | |
| Ieri h: 11:00 | Sereno | 36 | -4 | 7 | 1014 | 10 | S/SE 7.4 | |
| Ieri h: 10:00 | Sereno | 34 | -1 | 10 | 1015 | 10 | O/SO 11.1 | |
| Ieri h: 09:00 | Sereno | 31 | 2 | 15 | 1015 | 10 | E 7.4 | |
| Ieri h: 08:00 | Sereno | 29 | 2 | 17 | 1014 | 10 | N 3.7 | |
| Ieri h: 07:00 | Sereno | 27 | 4 | 22 | 1014 | 10 | N 3.7 | |
| Ieri h: 06:00 | Sereno | 27 | 2 | 19 | 1014 | 10 | E/NE 7.4 | |
| Ieri h: 05:00 | Sereno | 27 | 0 | 17 | 1013 | 10 | N 0 | |
| Ieri h: 04:00 | Sereno | 26 | -2 | 15 | 1013 | 10 | N 3.7 | |
| Ieri h: 03:00 | Sereno | 26 | -4 | 13 | 1013 | 10 | S/SO 7.4 | |
| Ieri h: 02:00 | Sereno | 28 | -2 | 13 | 1013 | 10 | N 3.7 | |
| Ieri h: 01:00 | Sereno | 30 | -1 | 13 | 1013 | 10 | N 3.7 | |



